Time;durP1;ratioP1;P1;durP2;ratioP2;P2;SDS_P1;SDS_P2;PMS_P1;PMS_P2;Temp;Humidity;BMP_temperature;BMP_pressure;BME280_temperature;BME280_humidity;BME280_pressure;Samples;Min_cycle;Max_cycle;Signal;HPM_P1;HPM_P2
2021/09/30 00:00:15;;;;;;;4.10;2.07;;;10.50;99.90;;;;;;5058591;28;20229;-50
2021/09/30 00:02:42;;;;;;;3.97;1.73;;;10.40;99.90;;;;;;5045510;28;20331;-50
2021/09/30 00:05:10;;;;;;;5.93;1.90;;;10.30;99.90;;;;;;5044650;28;20198;-50
2021/09/30 00:07:38;;;;;;;6.07;1.90;;;10.30;99.90;;;;;;5037680;28;20256;-50
2021/09/30 00:10:07;;;;;;;4.20;1.63;;;10.40;99.90;;;;;;5041355;28;20644;-50
2021/09/30 00:12:39;;;;;;;3.43;1.73;;;10.30;99.90;;;;;;5051680;28;20292;-50
2021/09/30 00:15:11;;;;;;;7.43;2.47;;;10.50;99.90;;;;;;5060456;28;20645;-50
2021/09/30 00:42:04;;;;;;;5.27;2.90;;;10.00;99.90;;;;;;5060535;28;20334;-50
2021/09/30 00:47:34;;;;;;;4.77;2.63;;;10.10;99.90;;;;;;5075782;28;20228;-50
2021/09/30 03:00:13;;;;;;;6.57;2.10;;;9.40;99.90;;;;;;5063568;28;20253;-50
2021/09/30 03:02:43;;;;;;;5.90;2.70;;;9.20;99.90;;;;;;5065132;28;20241;-50
2021/09/30 03:05:12;;;;;;;12.07;3.03;;;9.30;99.90;;;;;;5062825;28;20215;-50
2021/09/30 03:07:40;;;;;;;6.43;2.60;;;9.50;99.90;;;;;;5063956;28;20235;-50
2021/09/30 03:10:08;;;;;;;3.73;2.63;;;9.50;99.90;;;;;;5063807;28;20282;-50
2021/09/30 03:12:37;;;;;;;6.67;2.73;;;9.30;99.90;;;;;;5065613;28;20289;-51
2021/09/30 03:15:28;;;;;;;10.27;2.93;;;9.30;99.90;;;;;;5069187;28;20292;-51
2021/09/30 03:20:44;;;;;;;6.97;2.80;;;9.40;99.90;;;;;;5062449;28;20635;-50
2021/09/30 03:23:20;;;;;;;4.70;2.27;;;9.30;99.90;;;;;;5065573;28;20249;-50
2021/09/30 03:25:49;;;;;;;5.27;2.97;;;9.40;99.90;;;;;;5057025;28;20284;-51
2021/09/30 03:28:18;;;;;;;6.53;2.90;;;9.40;99.90;;;;;;5060735;28;20560;-51
2021/09/30 03:30:46;;;;;;;4.37;2.23;;;9.50;99.90;;;;;;5060753;28;20596;-50
2021/09/30 03:33:14;;;;;;;5.00;2.80;;;9.30;99.90;;;;;;5059384;28;20224;-50
2021/09/30 03:35:41;;;;;;;8.17;2.67;;;9.20;99.90;;;;;;5065155;28;20590;-50
2021/09/30 03:38:09;;;;;;;7.20;2.50;;;9.20;99.90;;;;;;5062673;28;20229;-50
2021/09/30 03:40:37;;;;;;;7.60;3.10;;;9.10;99.90;;;;;;5063695;28;20240;-50
2021/09/30 03:43:05;;;;;;;4.60;2.67;;;9.10;99.90;;;;;;5063438;28;20255;-50
2021/09/30 03:45:32;;;;;;;4.10;2.67;;;9.10;99.90;;;;;;5044553;28;20299;-50
2021/09/30 03:47:59;;;;;;;4.23;2.60;;;9.00;99.90;;;;;;5059986;28;20988;-50
2021/09/30 03:50:30;;;;;;;5.30;2.63;;;9.00;99.90;;;;;;5061918;28;20286;-50
2021/09/30 03:53:09;;;;;;;8.37;2.90;;;9.00;99.90;;;;;;5060982;28;20290;-50
2021/09/30 04:01:06;;;;;;;8.00;2.87;;;8.90;99.90;;;;;;5063272;28;20207;-50
2021/09/30 04:03:33;;;;;;;12.50;4.50;;;9.00;99.90;;;;;;5067141;28;20219;-50
2021/09/30 04:06:01;;;;;;;8.97;2.80;;;8.80;99.90;;;;;;5060044;28;20195;-50
2021/09/30 04:08:29;;;;;;;5.93;3.20;;;8.80;99.90;;;;;;5061265;28;20298;-50
2021/09/30 04:10:56;;;;;;;5.93;2.83;;;8.90;99.90;;;;;;5063299;28;20223;-51
2021/09/30 04:13:23;;;;;;;7.87;3.10;;;9.00;99.90;;;;;;5063541;28;20260;-51
2021/09/30 04:15:51;;;;;;;5.93;2.83;;;8.90;99.90;;;;;;5063986;28;20312;-51
2021/09/30 04:18:18;;;;;;;5.50;2.50;;;8.90;99.90;;;;;;5064917;28;20205;-51
2021/09/30 04:20:45;;;;;;;3.73;2.63;;;8.90;99.90;;;;;;5062184;28;20275;-50
2021/09/30 04:23:12;;;;;;;4.67;2.80;;;8.80;99.90;;;;;;5064048;28;20318;-51
2021/09/30 04:25:39;;;;;;;6.93;2.90;;;8.80;99.90;;;;;;5060086;28;20612;-51
2021/09/30 04:28:06;;;;;;;8.33;3.30;;;8.90;99.90;;;;;;5064249;28;20227;-51
2021/09/30 04:30:32;;;;;;;11.73;3.20;;;8.80;99.90;;;;;;5062101;28;20222;-50
2021/09/30 04:32:59;;;;;;;5.27;2.93;;;8.80;99.90;;;;;;5064253;28;20244;-50
2021/09/30 04:35:26;;;;;;;5.00;2.80;;;8.80;99.90;;;;;;5062508;28;20224;-50
2021/09/30 04:37:53;;;;;;;5.47;3.07;;;8.90;99.90;;;;;;5060009;28;20238;-50
2021/09/30 04:40:20;;;;;;;4.77;2.63;;;8.80;99.90;;;;;;5056632;28;20303;-50
2021/09/30 04:42:46;;;;;;;8.90;3.37;;;8.70;99.90;;;;;;5062507;28;20303;-51
2021/09/30 04:45:13;;;;;;;6.47;2.63;;;8.90;99.90;;;;;;5043027;28;20605;-50
2021/09/30 04:47:40;;;;;;;4.90;2.80;;;8.90;99.90;;;;;;5060540;28;20222;-50
2021/09/30 04:50:10;;;;;;;3.40;2.53;;;8.80;99.90;;;;;;5060303;28;20221;-50
2021/09/30 04:52:37;;;;;;;7.70;2.23;;;8.80;99.90;;;;;;5062723;28;20250;-50
2021/09/30 04:55:04;;;;;;;6.07;3.27;;;8.70;99.90;;;;;;5062452;28;20299;-50
2021/09/30 04:57:32;;;;;;;6.40;3.00;;;8.60;99.90;;;;;;5045707;28;20258;-50
2021/09/30 04:59:59;;;;;;;3.80;2.67;;;8.60;99.90;;;;;;5057332;28;20234;-51
2021/09/30 05:02:26;;;;;;;4.47;2.67;;;8.70;99.90;;;;;;5062257;28;20625;-50
2021/09/30 05:04:53;;;;;;;10.90;3.87;;;8.70;99.90;;;;;;5060089;28;20267;-50
2021/09/30 05:07:19;;;;;;;6.73;2.70;;;8.70;99.90;;;;;;5047100;28;20259;-50
2021/09/30 05:09:50;;;;;;;6.07;3.37;;;8.60;99.90;;;;;;5062420;28;20731;-51
2021/09/30 05:12:17;;;;;;;4.33;2.70;;;8.50;99.90;;;;;;5063442;28;20721;-51
2021/09/30 05:14:44;;;;;;;5.67;2.43;;;8.70;99.90;;;;;;5062734;28;20227;-50
2021/09/30 05:17:10;;;;;;;5.33;2.60;;;8.80;99.90;;;;;;5060970;28;20287;-50
2021/09/30 05:19:37;;;;;;;5.03;2.90;;;8.70;99.90;;;;;;5060166;28;20295;-50
2021/09/30 05:22:04;;;;;;;7.67;2.77;;;8.50;99.90;;;;;;5038009;28;20319;-50
2021/09/30 05:24:31;;;;;;;6.87;2.67;;;8.50;99.90;;;;;;5071338;28;20247;-50
2021/09/30 05:26:58;;;;;;;5.00;2.90;;;8.50;99.90;;;;;;5076435;28;20226;-51
2021/09/30 05:29:24;;;;;;;5.03;2.63;;;8.50;99.90;;;;;;5058868;28;20225;-50
2021/09/30 05:31:51;;;;;;;5.87;2.80;;;8.60;99.90;;;;;;5058605;28;20834;-51
2021/09/30 05:34:18;;;;;;;4.83;2.30;;;8.60;99.90;;;;;;5062330;28;20198;-50
2021/09/30 05:36:45;;;;;;;8.77;2.97;;;8.60;99.90;;;;;;5059922;28;20287;-50
2021/09/30 05:39:11;;;;;;;7.73;2.70;;;8.70;99.90;;;;;;5065751;28;20231;-50
2021/09/30 05:41:38;;;;;;;4.30;2.30;;;8.60;99.90;;;;;;5061495;28;20231;-51
2021/09/30 05:44:09;;;;;;;4.50;2.53;;;8.50;99.90;;;;;;5055923;28;20916;-50
2021/09/30 05:46:41;;;;;;;7.17;2.57;;;8.60;99.90;;;;;;5058320;28;20363;-50
2021/09/30 05:49:10;;;;;;;5.73;2.67;;;8.60;99.90;;;;;;5058417;28;20193;-50
2021/09/30 05:51:38;;;;;;;5.70;2.63;;;8.60;99.90;;;;;;5059163;28;20239;-50
2021/09/30 05:54:05;;;;;;;5.97;2.50;;;8.80;99.90;;;;;;5056222;28;20229;-50
2021/09/30 05:56:32;;;;;;;7.43;2.57;;;8.80;99.90;;;;;;5060133;28;20199;-50
2021/09/30 05:58:59;;;;;;;8.53;3.13;;;8.80;99.90;;;;;;5064613;28;20198;-51
2021/09/30 06:02:11;;;;;;;5.37;3.03;;;8.90;99.90;;;;;;5056998;28;20237;-50
2021/09/30 06:12:19;;;;;;;5.00;2.30;;;8.70;99.90;;;;;;5056831;28;20641;-50
2021/09/30 06:14:46;;;;;;;6.63;2.60;;;8.60;99.90;;;;;;5060598;28;20214;-50
2021/09/30 06:17:13;;;;;;;6.10;2.87;;;8.70;99.90;;;;;;5055129;28;20235;-51
2021/09/30 06:19:40;;;;;;;3.83;2.70;;;8.60;99.90;;;;;;5061466;28;20221;-51
2021/09/30 06:22:07;;;;;;;3.93;2.40;;;8.60;99.90;;;;;;5039606;28;20238;-51
2021/09/30 06:24:35;;;;;;;10.63;2.53;;;8.50;99.90;;;;;;5059542;28;20213;-51
2021/09/30 06:27:03;;;;;;;6.77;2.40;;;8.70;99.90;;;;;;5056206;28;20224;-51
2021/09/30 06:29:31;;;;;;;9.37;2.80;;;8.90;99.90;;;;;;5050101;28;20287;-50
2021/09/30 06:31:58;;;;;;;6.10;2.40;;;8.80;99.90;;;;;;5065725;28;20227;-51
2021/09/30 06:34:25;;;;;;;6.60;2.57;;;8.90;99.90;;;;;;5056165;28;20340;-50
2021/09/30 06:36:52;;;;;;;4.13;2.40;;;8.80;99.90;;;;;;5060709;28;20296;-50
2021/09/30 06:39:19;;;;;;;4.67;2.27;;;9.00;99.90;;;;;;5060890;28;20318;-58
2021/09/30 06:41:46;;;;;;;4.40;2.20;;;9.10;99.90;;;;;;5073614;28;20638;-61
2021/09/30 06:44:17;;;;;;;5.43;2.50;;;9.10;99.90;;;;;;5061743;28;20304;-58
2021/09/30 06:46:44;;;;;;;7.03;3.20;;;9.30;99.90;;;;;;5061586;28;20222;-58
2021/09/30 06:49:11;;;;;;;7.73;3.10;;;9.40;99.90;;;;;;5061878;28;20291;-59
2021/09/30 06:51:38;;;;;;;5.70;2.10;;;9.50;99.90;;;;;;5057295;28;20650;-50
2021/09/30 06:54:05;;;;;;;6.67;2.40;;;9.50;99.90;;;;;;5065313;28;20206;-51
2021/09/30 06:56:32;;;;;;;4.67;2.67;;;9.50;99.90;;;;;;5058933;28;20209;-51
2021/09/30 06:59:05;;;;;;;4.47;2.20;;;9.50;99.90;;;;;;5057675;28;20214;-50
2021/09/30 07:01:35;;;;;;;5.43;2.43;;;9.60;99.90;;;;;;5056890;28;20317;-50
2021/09/30 07:04:08;;;;;;;7.27;2.50;;;9.80;99.90;;;;;;5060371;28;20280;-51
2021/09/30 07:06:35;;;;;;;5.73;2.57;;;10.00;99.90;;;;;;5060231;28;20218;-50
2021/09/30 07:09:03;;;;;;;4.07;2.30;;;9.80;99.90;;;;;;5071858;28;20264;-51
2021/09/30 07:11:30;;;;;;;6.00;2.70;;;10.00;99.90;;;;;;5058611;28;20408;-51
2021/09/30 07:13:57;;;;;;;7.17;2.43;;;10.20;99.90;;;;;;5056121;28;20226;-50
2021/09/30 07:16:24;;;;;;;5.70;2.37;;;10.30;99.90;;;;;;5061956;28;20556;-51
2021/09/30 07:18:51;;;;;;;6.20;2.60;;;10.30;99.90;;;;;;5056006;28;20215;-50
2021/09/30 07:21:18;;;;;;;6.10;2.53;;;10.30;99.90;;;;;;5062098;28;20260;-50
2021/09/30 07:23:45;;;;;;;7.30;2.50;;;10.20;99.90;;;;;;5067437;28;20225;-51
2021/09/30 07:26:13;;;;;;;4.30;2.20;;;10.20;99.90;;;;;;5061884;28;20370;-50
2021/09/30 07:28:40;;;;;;;5.67;2.60;;;10.30;99.90;;;;;;5057748;28;20202;-50
2021/09/30 07:31:08;;;;;;;6.80;3.13;;;10.40;99.90;;;;;;5060032;28;20293;-51
2021/09/30 07:33:35;;;;;;;6.10;2.57;;;10.60;99.90;;;;;;5060903;28;20601;-51
2021/09/30 07:36:02;;;;;;;6.23;2.70;;;10.60;99.90;;;;;;5064631;28;20213;-50
2021/09/30 07:38:29;;;;;;;7.67;2.70;;;10.60;99.90;;;;;;5055777;28;20906;-50
2021/09/30 07:40:56;;;;;;;5.30;2.40;;;10.60;99.90;;;;;;5061112;28;20260;-50
2021/09/30 07:43:23;;;;;;;10.97;2.57;;;10.80;99.90;;;;;;5052723;28;20288;-50
2021/09/30 07:45:50;;;;;;;8.50;2.50;;;10.90;99.90;;;;;;5059580;28;20301;-50
2021/09/30 07:48:17;;;;;;;4.67;2.13;;;11.00;99.90;;;;;;5066176;28;20197;-51
2021/09/30 07:50:43;;;;;;;6.10;2.50;;;11.30;99.90;;;;;;5064852;28;20228;-51
2021/09/30 07:53:13;;;;;;;5.03;2.20;;;11.20;99.90;;;;;;5062555;28;20253;-51
2021/09/30 07:55:39;;;;;;;4.90;2.30;;;11.10;99.90;;;;;;5058817;28;20321;-51
2021/09/30 07:58:09;;;;;;;7.67;2.77;;;11.50;99.90;;;;;;5057023;28;20230;-51
2021/09/30 08:00:41;;;;;;;5.37;1.90;;;11.70;99.90;;;;;;5055772;28;20297;-51
2021/09/30 08:03:09;;;;;;;4.47;2.40;;;11.80;99.90;;;;;;5068620;28;20198;-50
2021/09/30 08:05:37;;;;;;;4.13;2.20;;;11.80;99.90;;;;;;5063845;28;20665;-50
2021/09/30 08:08:05;;;;;;;4.90;2.00;;;11.80;99.90;;;;;;5064320;28;20251;-51
2021/09/30 08:10:33;;;;;;;6.43;2.37;;;12.20;99.90;;;;;;5044320;28;20233;-51
2021/09/30 08:13:01;;;;;;;4.70;1.93;;;11.90;99.90;;;;;;5063654;28;20230;-51
2021/09/30 08:15:28;;;;;;;4.57;2.03;;;11.90;99.90;;;;;;5060725;28;20239;-51
2021/09/30 08:17:55;;;;;;;5.37;2.23;;;12.10;99.90;;;;;;5058898;28;20297;-51
2021/09/30 08:20:22;;;;;;;5.93;2.53;;;12.30;99.90;;;;;;5059207;28;20341;-51
2021/09/30 08:22:49;;;;;;;4.83;1.77;;;12.50;99.90;;;;;;5077428;28;20675;-51
2021/09/30 08:25:16;;;;;;;5.00;2.20;;;12.60;99.90;;;;;;5061795;28;20305;-50
2021/09/30 08:27:43;;;;;;;7.37;2.07;;;12.70;99.90;;;;;;5063386;28;20569;-51
2021/09/30 08:30:10;;;;;;;5.23;2.00;;;12.70;99.90;;;;;;5063305;28;20222;-51
2021/09/30 08:32:37;;;;;;;8.93;2.27;;;13.10;99.90;;;;;;5056903;28;20663;-51
2021/09/30 08:35:05;;;;;;;4.13;1.93;;;13.40;99.90;;;;;;5063643;28;20274;-51
2021/09/30 08:37:32;;;;;;;6.27;2.27;;;13.50;99.90;;;;;;5057519;28;20656;-51
2021/09/30 08:39:59;;;;;;;4.17;1.90;;;13.50;17.30;;;;;;5058426;28;20416;-51
2021/09/30 08:42:27;;;;;;;4.43;1.70;;;13.60;96.60;;;;;;5065069;28;20293;-51
2021/09/30 08:44:54;;;;;;;4.97;1.83;;;13.20;35.50;;;;;;5058150;28;20219;-50
2021/09/30 08:47:21;;;;;;;4.30;2.07;;;13.30;4.50;;;;;;5063551;28;20642;-51
2021/09/30 08:49:48;;;;;;;7.60;2.20;;;13.90;98.70;;;;;;5064734;28;20576;-51
2021/09/30 08:52:15;;;;;;;5.57;2.20;;;14.00;1.00;;;;;;5067472;28;20198;-51
2021/09/30 08:54:46;;;;;;;3.27;1.63;;;14.00;1.00;;;;;;5060993;28;20587;-51
2021/09/30 08:57:13;;;;;;;4.00;1.97;;;14.30;1.00;;;;;;5064847;28;20242;-51
2021/09/30 08:59:40;;;;;;;4.87;1.50;;;14.10;1.00;;;;;;5067398;28;20268;-51
2021/09/30 09:02:14;;;;;;;6.70;2.40;;;13.50;1.00;;;;;;5066039;28;20200;-51
2021/09/30 09:04:59;;;;;;;5.13;1.90;;;13.60;1.00;;;;;;5061759;28;20227;-51
2021/09/30 09:07:30;;;;;;;3.30;1.50;;;13.50;1.00;;;;;;5063425;28;20562;-51
2021/09/30 09:10:01;;;;;;;5.20;1.90;;;13.40;1.00;;;;;;5059945;28;20220;-51
2021/09/30 09:12:31;;;;;;;8.33;2.43;;;13.50;1.00;;;;;;5060843;28;20694;-50
2021/09/30 09:15:00;;;;;;;5.30;2.07;;;13.40;1.00;;;;;;5052645;28;20199;-51
2021/09/30 09:17:27;;;;;;;5.07;1.90;;;13.40;1.00;;;;;;5061257;28;20200;-51
2021/09/30 09:19:56;;;;;;;4.60;1.73;;;13.50;1.00;;;;;;5064133;28;20245;-51
2021/09/30 09:22:30;;;;;;;8.53;2.27;;;13.60;1.00;;;;;;5063546;28;20204;-51
2021/09/30 09:25:08;;;;;;;5.03;2.43;;;13.60;1.00;;;;;;5055004;28;20257;-51
2021/09/30 09:27:44;;;;;;;3.53;1.30;;;13.50;1.00;;;;;;5065765;28;20207;-51
2021/09/30 09:30:29;;;;;;;6.60;1.93;;;13.30;1.00;;;;;;5064436;28;20290;-50
2021/09/30 09:33:05;;;;;;;4.97;1.27;;;13.30;1.00;;;;;;5068680;28;20276;-50
2021/09/30 09:35:53;;;;;;;5.83;1.50;;;13.40;1.00;;;;;;5059300;28;20650;-50
2021/09/30 09:38:22;;;;;;;4.83;1.83;;;13.30;1.00;;;;;;5066397;28;20210;-50
2021/09/30 09:41:04;;;;;;;4.53;1.60;;;13.20;1.00;;;;;;5062479;28;20697;-50
2021/09/30 09:43:40;;;;;;;5.53;1.50;;;13.20;1.00;;;;;;5054046;28;20245;-50
2021/09/30 09:46:10;;;;;;;4.33;1.50;;;13.20;1.00;;;;;;5050185;28;20328;-50
2021/09/30 09:48:37;;;;;;;6.13;1.57;;;13.30;1.00;;;;;;5056869;28;20681;-50
2021/09/30 09:51:11;;;;;;;4.70;1.37;;;13.30;99.90;;;;;;5059401;28;20194;-50
2021/09/30 09:53:39;;;;;;;7.13;1.57;;;13.10;99.90;;;;;;5060303;28;20651;-50
2021/09/30 09:56:19;;;;;;;4.33;1.33;;;13.00;99.90;;;;;;5052855;28;20894;-50
2021/09/30 09:58:45;;;;;;;4.67;1.60;;;13.20;99.90;;;;;;5068236;28;20199;-50
2021/09/30 10:01:12;;;;;;;2.83;1.23;;;13.10;99.90;;;;;;5076032;28;20206;-50
2021/09/30 10:03:49;;;;;;;2.37;0.90;;;13.00;1.00;;;;;;5060057;28;20241;-50
2021/09/30 10:06:16;;;;;;;4.57;1.40;;;13.10;99.90;;;;;;5065027;28;20214;-50
2021/09/30 10:08:44;;;;;;;3.80;1.20;;;13.20;99.90;;;;;;5057869;28;20325;-50
2021/09/30 10:11:11;;;;;;;4.60;1.30;;;13.20;99.90;;;;;;5058912;28;20207;-50
2021/09/30 10:13:38;;;;;;;6.87;1.27;;;13.40;27.30;;;;;;5058871;28;20246;-50
2021/09/30 10:16:06;;;;;;;4.53;1.30;;;13.40;1.00;;;;;;5061725;28;20776;-50
2021/09/30 10:18:33;;;;;;;3.17;0.90;;;13.50;1.00;;;;;;5055545;28;20309;-50
2021/09/30 10:21:01;;;;;;;4.97;1.10;;;13.30;1.00;;;;;;5071263;28;20207;-50
2021/09/30 10:23:35;;;;;;;7.23;1.30;;;13.30;1.00;;;;;;5063504;28;20207;-50
2021/09/30 10:26:18;;;;;;;4.83;1.30;;;13.50;99.90;;;;;;5061645;28;20590;-50
2021/09/30 10:28:46;;;;;;;4.00;1.10;;;13.40;99.90;;;;;;5057925;28;20287;-50
2021/09/30 10:31:27;;;;;;;5.10;1.77;;;13.50;1.00;;;;;;5067574;28;20203;-51
2021/09/30 10:33:56;;;;;;;2.23;0.90;;;13.60;1.00;;;;;;5061044;28;20195;-51
2021/09/30 10:36:34;;;;;;;3.50;1.00;;;13.50;1.00;;;;;;5056468;28;20556;-50
2021/09/30 10:39:22;;;;;;;3.97;1.17;;;13.60;99.90;;;;;;5045643;28;20207;-50
2021/09/30 10:41:54;;;;;;;4.57;0.90;;;13.80;1.00;;;;;;5063110;28;20263;-50
2021/09/30 10:44:24;;;;;;;2.30;0.90;;;13.80;1.00;;;;;;5054395;28;20270;-50
2021/09/30 10:46:58;;;;;;;4.70;1.27;;;13.90;99.90;;;;;;5064535;28;20361;-51
2021/09/30 10:49:30;;;;;;;5.97;0.90;;;13.90;61.70;;;;;;5054786;28;20573;-51
2021/09/30 10:52:20;;;;;;;4.73;1.00;;;13.80;1.00;;;;;;5062440;28;20588;-51
2021/09/30 10:55:14;;;;;;;5.50;1.43;;;14.00;1.00;;;;;;5055829;28;20199;-51
2021/09/30 10:57:50;;;;;;;4.27;1.00;;;13.90;1.00;;;;;;5050587;28;20598;-51
2021/09/30 11:00:17;;;;;;;5.37;1.00;;;14.00;1.00;;;;;;5065950;28;20191;-51
2021/09/30 11:03:00;;;;;;;3.57;1.03;;;13.90;1.00;;;;;;5055039;28;20285;-51
2021/09/30 11:05:30;;;;;;;1.90;0.60;;;14.00;1.00;;;;;;5059443;28;20348;-51
2021/09/30 11:08:20;;;;;;;3.73;0.80;;;14.00;1.00;;;;;;5064726;28;20206;-51
2021/09/30 11:11:08;;;;;;;6.43;0.90;;;14.00;1.00;;;;;;5067645;28;20634;-51
2021/09/30 11:14:07;;;;;;;2.67;0.90;;;13.90;99.90;;;;;;5057586;28;20237;-51
2021/09/30 11:16:45;;;;;;;5.70;0.93;;;13.90;1.00;;;;;;5058222;28;20930;-50
2021/09/30 11:19:41;;;;;;;1.57;1.07;;;14.10;1.00;;;;;;5060241;28;20231;-51
2021/09/30 11:22:11;;;;;;;2.73;0.80;;;14.00;1.00;;;;;;5059271;28;20192;-51
2021/09/30 11:24:54;;;;;;;1.47;0.90;;;14.20;99.90;;;;;;5059127;28;20208;-51
2021/09/30 11:27:26;;;;;;;4.73;0.90;;;14.20;99.90;;;;;;5058227;28;20242;-51
2021/09/30 11:30:14;;;;;;;5.37;1.00;;;14.00;99.90;;;;;;5051130;28;20199;-51
2021/09/30 11:32:41;;;;;;;5.23;0.63;;;14.20;1.00;;;;;;5061197;28;20258;-51
2021/09/30 11:35:09;;;;;;;5.30;2.03;;;14.10;1.00;;;;;;5055029;28;20286;-50
2021/09/30 11:37:42;;;;;;;5.07;1.40;;;14.00;1.00;;;;;;5050628;28;20200;-51
2021/09/30 11:40:14;;;;;;;1.73;0.80;;;14.10;1.00;;;;;;5052836;28;20620;-51
2021/09/30 11:42:48;;;;;;;3.60;1.10;;;14.00;99.90;;;;;;5051733;28;20207;-51
2021/09/30 11:45:25;;;;;;;4.17;0.87;;;14.00;99.90;;;;;;5061162;28;20527;-51
2021/09/30 11:48:04;;;;;;;4.10;0.80;;;14.30;99.90;;;;;;5055850;28;20279;-51
2021/09/30 11:50:32;;;;;;;6.57;1.10;;;14.30;1.00;;;;;;5061308;28;20240;-51
2021/09/30 11:53:03;;;;;;;6.80;1.27;;;14.40;99.90;;;;;;5051922;28;20322;-51
2021/09/30 11:55:33;;;;;;;3.43;0.80;;;14.40;99.90;;;;;;5069878;28;20250;-49
2021/09/30 11:58:04;;;;;;;4.87;1.50;;;14.30;99.90;;;;;;5054749;28;20239;-49
2021/09/30 12:00:33;;;;;;;2.77;0.80;;;14.30;1.00;;;;;;5035749;28;20215;-49
2021/09/30 12:03:15;;;;;;;3.47;0.97;;;14.40;30.00;;;;;;5065590;28;20202;-50
2021/09/30 12:05:42;;;;;;;3.17;0.90;;;14.30;1.00;;;;;;5066775;28;20319;-49
2021/09/30 12:08:09;;;;;;;4.40;1.07;;;14.40;1.00;;;;;;5059596;28;20647;-49
2021/09/30 12:10:39;;;;;;;6.57;1.20;;;14.40;1.00;;;;;;5063346;28;20613;-50
2021/09/30 12:13:18;;;;;;;3.03;1.00;;;14.50;3.80;;;;;;5062513;28;20264;-49
2021/09/30 12:15:46;;;;;;;3.07;0.80;;;14.40;1.00;;;;;;5039236;28;20292;-49
2021/09/30 12:18:19;;;;;;;3.20;1.10;;;14.30;99.90;;;;;;5024908;28;20226;-50
2021/09/30 12:20:57;;;;;;;6.17;0.73;;;14.30;99.90;;;;;;5040237;28;20203;-49
2021/09/30 12:23:25;;;;;;;3.43;1.00;;;14.40;99.90;;;;;;5036128;28;20286;-49
2021/09/30 12:25:52;;;;;;;4.17;1.10;;;14.30;99.90;;;;;;5043597;28;20330;-49
2021/09/30 12:28:19;;;;;;;2.23;0.90;;;14.40;99.90;;;;;;5044605;28;20200;-49
2021/09/30 12:30:46;;;;;;;3.37;0.90;;;14.30;1.00;;;;;;5039864;28;20235;-50
2021/09/30 12:33:13;;;;;;;6.17;0.93;;;14.40;1.00;;;;;;5036628;28;20217;-50
2021/09/30 12:35:43;;;;;;;2.23;0.90;;;14.40;1.00;;;;;;5043899;28;20357;-49
2021/09/30 12:38:16;;;;;;;5.37;1.40;;;14.40;99.90;;;;;;5044510;28;20214;-49
2021/09/30 12:40:46;;;;;;;4.27;1.07;;;14.40;99.90;;;;;;5038382;28;20200;-50
2021/09/30 12:43:27;;;;;;;5.93;1.00;;;14.30;1.00;;;;;;5040731;28;20209;-49
2021/09/30 12:46:00;;;;;;;3.60;1.10;;;14.50;1.00;;;;;;5038843;28;20255;-49
2021/09/30 12:48:30;;;;;;;5.70;1.10;;;14.50;1.00;;;;;;5042106;28;20306;-49
2021/09/30 12:51:04;;;;;;;3.20;1.10;;;14.50;1.00;;;;;;5046537;28;20207;-49
2021/09/30 12:53:39;;;;;;;5.57;1.10;;;14.50;1.00;;;;;;5044222;28;20240;-49
2021/09/30 12:56:08;;;;;;;4.97;1.10;;;14.40;1.00;;;;;;5039049;28;20294;-49
2021/09/30 12:58:45;;;;;;;4.37;0.80;;;14.30;99.90;;;;;;5023796;28;20287;-50
2021/09/30 13:01:30;;;;;;;2.17;0.80;;;14.30;1.00;;;;;;5047197;28;20265;-49
2021/09/30 13:04:07;;;;;;;2.30;0.73;;;14.40;1.00;;;;;;5048818;28;20279;-49
2021/09/30 13:06:37;;;;;;;3.33;1.00;;;14.40;1.00;;;;;;5031649;28;20696;-49
2021/09/30 13:09:04;;;;;;;4.30;1.10;;;14.50;99.90;;;;;;5045816;28;20241;-49
2021/09/30 13:11:36;;;;;;;8.40;1.10;;;14.40;1.00;;;;;;5036508;28;20628;-49
2021/09/30 13:14:22;;;;;;;3.80;0.97;;;14.30;99.90;;;;;;5058871;28;20256;-50
2021/09/30 13:16:56;;;;;;;2.87;0.83;;;14.30;99.90;;;;;;5062043;28;20258;-49
2021/09/30 13:20:01;;;;;;;5.23;0.87;;;14.40;1.00;;;;;;5070673;28;20260;-49
2021/09/30 13:22:33;;;;;;;4.60;0.73;;;14.40;1.00;;;;;;4972432;28;20211;-49
2021/09/30 13:25:05;;;;;;;3.20;0.90;;;14.40;1.00;;;;;;4963352;28;20488;-49
2021/09/30 13:27:35;;;;;;;4.20;1.10;;;14.30;95.80;;;;;;4967952;28;20242;-49
2021/09/30 13:30:11;;;;;;;3.20;1.27;;;14.40;1.00;;;;;;4963263;28;20367;-49
2021/09/30 13:32:39;;;;;;;5.80;1.10;;;14.30;99.90;;;;;;4946486;28;20654;-49
2021/09/30 13:35:07;;;;;;;3.67;1.47;;;14.40;1.00;;;;;;4955799;28;20301;-49
2021/09/30 13:37:34;;;;;;;3.73;1.30;;;14.40;1.00;;;;;;4957511;28;20274;-49
2021/09/30 13:40:01;;;;;;;3.70;1.10;;;14.40;99.90;;;;;;4952245;28;21142;-49
2021/09/30 13:42:31;;;;;;;5.90;1.30;;;14.40;99.90;;;;;;4971162;28;20229;-49
2021/09/30 13:44:58;;;;;;;2.83;1.20;;;14.40;1.00;;;;;;4961048;28;20238;-49
2021/09/30 13:47:28;;;;;;;4.63;1.37;;;14.40;1.00;;;;;;4963286;28;20376;-49
2021/09/30 13:49:56;;;;;;;4.27;1.33;;;14.40;1.00;;;;;;4954404;28;20650;-50
2021/09/30 13:52:24;;;;;;;4.93;1.40;;;14.30;1.00;;;;;;4959991;28;20230;-50
2021/09/30 13:54:51;;;;;;;6.10;1.53;;;14.30;1.00;;;;;;4966224;28;20208;-50
2021/09/30 13:57:18;;;;;;;5.73;1.70;;;14.30;99.90;;;;;;5046115;28;20312;-49
2021/09/30 13:59:44;;;;;;;4.10;1.30;;;14.30;1.00;;;;;;5063274;28;20231;-49
2021/09/30 14:02:31;;;;;;;4.53;1.50;;;14.40;1.00;;;;;;5062571;28;20220;-49
2021/09/30 14:04:58;;;;;;;5.50;1.30;;;14.40;1.00;;;;;;5060374;28;20265;-50
2021/09/30 14:07:25;;;;;;;5.40;1.80;;;14.30;99.90;;;;;;5060523;28;20247;-50
2021/09/30 14:09:53;;;;;;;6.53;2.40;;;14.40;1.00;;;;;;5065100;28;20647;-49
2021/09/30 14:12:20;;;;;;;4.83;1.40;;;14.40;92.80;;;;;;5058051;28;20679;-49
2021/09/30 14:14:47;;;;;;;9.53;1.53;;;14.40;1.00;;;;;;5058043;28;20238;-50
2021/09/30 14:17:14;;;;;;;3.97;1.70;;;14.40;1.00;;;;;;5062333;28;20241;-49
2021/09/30 14:19:41;;;;;;;2.67;1.40;;;14.40;1.00;;;;;;5059731;28;20881;-49
2021/09/30 14:22:08;;;;;;;4.90;1.50;;;14.40;1.00;;;;;;5064937;28;20650;-49
2021/09/30 14:24:35;;;;;;;3.90;1.10;;;14.30;1.00;;;;;;5052035;28;20234;-49
2021/09/30 14:27:02;;;;;;;8.73;2.30;;;14.30;1.00;;;;;;5072644;28;20385;-49
2021/09/30 14:29:30;;;;;;;5.13;1.70;;;14.40;99.90;;;;;;5070812;28;20197;-50
2021/09/30 14:31:57;;;;;;;3.23;1.30;;;14.40;1.00;;;;;;5060637;28;20327;-49
2021/09/30 14:34:24;;;;;;;7.77;2.00;;;14.40;99.90;;;;;;5064243;28;20242;-50
2021/09/30 14:36:51;;;;;;;3.13;1.20;;;14.40;1.00;;;;;;5061558;28;20671;-50
2021/09/30 14:39:18;;;;;;;5.17;1.20;;;14.30;99.90;;;;;;5069806;28;20650;-50
2021/09/30 14:41:45;;;;;;;2.90;1.23;;;14.40;1.00;;;;;;5057776;28;20643;-49
2021/09/30 14:44:12;;;;;;;6.17;1.33;;;14.40;1.00;;;;;;5060414;28;20294;-49
2021/09/30 14:46:39;;;;;;;4.40;1.20;;;14.50;1.00;;;;;;5045417;28;20284;-50
2021/09/30 14:49:06;;;;;;;5.63;2.03;;;14.30;1.00;;;;;;5072058;28;20233;-49
2021/09/30 14:51:33;;;;;;;5.67;1.37;;;14.40;99.90;;;;;;5062705;28;20195;-49
2021/09/30 14:53:59;;;;;;;4.30;1.30;;;14.30;99.90;;;;;;5074771;28;20195;-50
2021/09/30 14:56:26;;;;;;;2.83;1.30;;;14.40;99.90;;;;;;5064724;28;20314;-49
2021/09/30 14:58:53;;;;;;;2.43;1.13;;;14.40;1.00;;;;;;5072637;28;20619;-50
2021/09/30 15:01:21;;;;;;;4.57;1.10;;;14.30;1.00;;;;;;5069073;28;20615;-49
2021/09/30 15:03:50;;;;;;;8.80;1.53;;;14.30;1.00;;;;;;5071565;28;20281;-50
2021/09/30 15:06:17;;;;;;;5.97;1.50;;;14.40;99.90;;;;;;5061059;28;20257;-50
2021/09/30 15:08:44;;;;;;;5.10;1.23;;;14.50;1.00;;;;;;5073289;28;20218;-50
2021/09/30 15:11:11;;;;;;;3.20;1.20;;;14.40;1.00;;;;;;5066216;28;20611;-49
2021/09/30 15:13:38;;;;;;;3.43;1.40;;;14.40;99.90;;;;;;5076798;28;20252;-49
2021/09/30 15:16:08;;;;;;;4.40;1.30;;;14.40;1.00;;;;;;5075039;28;20261;-49
2021/09/30 15:21:20;;;;;;;3.50;1.20;;;14.50;1.00;;;;;;5074261;28;20190;-49
2021/09/30 15:23:55;;;;;;;5.00;1.47;;;14.50;1.00;;;;;;5068917;28;20308;-49
2021/09/30 15:26:24;;;;;;;3.80;1.20;;;14.50;1.00;;;;;;5074246;28;20306;-50
2021/09/30 15:28:51;;;;;;;3.60;1.30;;;14.50;1.00;;;;;;5074082;28;20205;-49
2021/09/30 15:31:18;;;;;;;4.80;1.40;;;14.50;1.00;;;;;;5059056;28;20287;-49
2021/09/30 15:33:46;;;;;;;3.47;1.23;;;14.50;1.00;;;;;;5068364;28;20283;-49
2021/09/30 15:36:13;;;;;;;5.93;2.27;;;14.50;10.50;;;;;;5061346;28;20663;-49
2021/09/30 15:38:41;;;;;;;3.73;1.37;;;14.50;1.00;;;;;;5065371;28;20211;-49
2021/09/30 15:41:09;;;;;;;2.40;1.10;;;14.60;8.30;;;;;;5048886;28;20708;-49
2021/09/30 15:43:45;;;;;;;3.27;1.20;;;14.50;99.90;;;;;;5056745;28;20204;-49
2021/09/30 15:46:12;;;;;;;3.47;1.53;;;14.60;1.00;;;;;;5041348;28;20721;-49
2021/09/30 15:48:40;;;;;;;6.20;1.27;;;14.70;1.00;;;;;;5058411;28;20202;-49
2021/09/30 15:51:08;;;;;;;5.47;1.43;;;14.60;99.90;;;;;;5060348;28;20196;-49
2021/09/30 15:53:35;;;;;;;3.33;1.40;;;14.60;99.90;;;;;;5062153;28;20219;-49
2021/09/30 15:56:06;;;;;;;4.93;1.27;;;14.50;99.90;;;;;;5059704;28;20226;-48
2021/09/30 15:58:33;;;;;;;2.67;1.30;;;14.50;1.00;;;;;;5057740;28;20208;-49
2021/09/30 16:01:02;;;;;;;8.47;1.50;;;14.50;1.00;;;;;;5057036;28;21019;-49
2021/09/30 16:03:28;;;;;;;4.97;1.40;;;14.40;1.00;;;;;;5062222;28;20587;-49